createdAt,value
2022-12-02T00:02:35.341Z,101283.00
2022-12-02T00:08:38.546Z,101279.00
2022-12-02T00:14:40.823Z,101289.00
2022-12-02T00:20:44.584Z,101280.00
2022-12-02T00:26:47.110Z,101278.00
2022-12-02T00:32:49.336Z,101282.00
2022-12-02T00:38:51.594Z,101289.00
2022-12-02T00:45:12.313Z,101288.00
2022-12-02T00:51:14.653Z,101283.00
2022-12-02T00:57:17.147Z,101280.00
2022-12-02T01:03:19.814Z,101267.00
2022-12-02T01:09:22.101Z,101271.00
2022-12-02T01:15:24.529Z,101278.00
2022-12-02T01:21:28.204Z,101272.00
2022-12-02T01:27:30.441Z,101271.00
2022-12-02T01:33:34.270Z,101276.00
2022-12-02T01:39:36.386Z,101282.00
2022-12-02T01:45:38.949Z,101289.00
2022-12-02T01:51:41.321Z,101283.00
2022-12-02T01:57:43.701Z,101274.00
2022-12-02T02:03:45.932Z,101272.00
2022-12-02T02:09:48.383Z,101278.00
2022-12-02T02:15:50.565Z,101282.00
2022-12-02T02:21:54.618Z,101276.00
2022-12-02T02:28:00.641Z,101264.00
2022-12-02T02:34:04.859Z,101268.00
2022-12-02T02:40:08.436Z,101273.00
2022-12-02T02:46:11.720Z,101278.00
2022-12-02T02:52:16.508Z,101274.00
2022-12-02T02:58:22.411Z,101267.00
2022-12-02T03:04:26.254Z,101279.00
2022-12-02T03:10:28.507Z,101271.00
2022-12-02T03:16:31.287Z,101275.00
2022-12-02T03:22:33.651Z,101274.00
2022-12-02T03:28:36.273Z,101277.00
2022-12-02T03:34:41.786Z,101284.00
2022-12-02T03:40:44.225Z,101293.00
2022-12-02T03:46:48.326Z,101287.00
2022-12-02T03:52:50.960Z,101289.00
2022-12-02T03:58:53.824Z,101302.00
2022-12-02T04:04:55.975Z,101292.00
2022-12-02T04:10:58.461Z,101312.00
2022-12-02T04:17:05.183Z,101303.00
2022-12-02T04:23:10.394Z,101304.00
2022-12-02T04:29:12.826Z,101306.00
2022-12-02T04:35:15.184Z,101314.00
2022-12-02T04:41:17.438Z,101319.00
2022-12-02T04:47:19.620Z,101315.00
2022-12-02T04:53:21.798Z,101314.00
2022-12-02T04:59:24.232Z,101322.00
2022-12-02T05:05:26.465Z,101329.00
2022-12-02T05:11:33.234Z,101331.00
2022-12-02T05:17:42.111Z,101328.00
2022-12-02T05:23:44.851Z,101337.00
2022-12-02T05:29:50.020Z,101335.00
2022-12-02T05:35:52.338Z,101337.00
2022-12-02T05:42:00.553Z,101337.00
2022-12-02T05:48:03.067Z,101336.00
2022-12-02T05:54:06.793Z,101336.00
2022-12-02T06:00:22.008Z,101347.00
2022-12-02T06:06:29.660Z,101338.00
2022-12-02T06:12:32.014Z,101344.00
2022-12-02T06:18:36.236Z,101356.00
2022-12-02T06:24:38.470Z,101362.00
2022-12-02T06:30:41.370Z,101356.00
2022-12-02T06:36:46.622Z,101358.00
2022-12-02T06:42:49.634Z,101359.00
2022-12-02T06:48:52.323Z,101350.00
2022-12-02T06:54:54.761Z,101357.00
2022-12-02T07:01:12.617Z,101378.00
2022-12-02T07:07:17.090Z,101371.00
2022-12-02T07:13:20.391Z,101372.00
2022-12-02T07:19:35.357Z,101387.00
2022-12-02T07:25:44.978Z,101401.00
2022-12-02T07:31:47.560Z,101402.00
2022-12-02T07:37:49.849Z,101411.00
2022-12-02T07:43:52.205Z,101412.00
2022-12-02T07:49:54.592Z,101415.00
2022-12-02T07:55:58.667Z,101422.00
2022-12-02T08:02:01.057Z,101429.00
2022-12-02T08:08:03.484Z,101418.00
2022-12-02T08:14:06.274Z,101417.00
2022-12-02T08:20:11.214Z,101421.00
2022-12-02T08:26:13.723Z,101416.00
2022-12-02T08:32:16.946Z,101409.00
2022-12-02T08:38:19.579Z,101409.00
2022-12-02T08:44:22.040Z,101398.00
2022-12-02T08:50:24.813Z,101393.00
2022-12-02T08:56:27.193Z,101395.00
2022-12-02T09:02:29.413Z,101387.00
2022-12-02T09:08:32.281Z,101377.00
2022-12-02T09:14:34.738Z,101381.00
2022-12-02T09:20:37.090Z,101399.00
2022-12-02T09:26:39.405Z,101393.00
2022-12-02T09:32:41.898Z,101381.00
2022-12-02T09:38:44.096Z,101376.00
2022-12-02T09:44:47.595Z,101371.00
2022-12-02T09:50:51.372Z,101366.00
2022-12-02T09:56:53.667Z,101372.00
2022-12-02T10:02:56.107Z,101374.00
2022-12-02T10:08:58.549Z,101384.00
2022-12-02T10:15:01.066Z,101383.00
2022-12-02T10:21:03.553Z,101380.00
2022-12-02T10:27:05.937Z,101392.00
2022-12-02T10:33:08.856Z,101379.00
2022-12-02T10:39:24.761Z,101376.00
2022-12-02T10:45:27.005Z,101366.00
2022-12-02T10:51:29.214Z,101360.00
2022-12-02T10:57:35.146Z,101351.00
2022-12-02T11:03:37.751Z,101357.00
2022-12-02T11:09:41.474Z,101357.00
2022-12-02T11:15:43.844Z,101347.00
2022-12-02T11:21:46.315Z,101358.00
2022-12-02T11:28:28.879Z,101355.00
2022-12-02T11:35:14.971Z,101345.00
2022-12-02T11:41:05.273Z,101349.00
2022-12-02T11:47:22.676Z,101356.00
2022-12-02T11:53:25.600Z,101341.00
2022-12-02T11:59:29.963Z,101355.00
2022-12-02T12:05:32.282Z,101362.00
2022-12-02T12:11:37.673Z,101357.00
2022-12-02T12:17:39.901Z,101338.00
2022-12-02T12:23:46.475Z,101351.00
2022-12-02T12:29:48.716Z,101352.00
2022-12-02T12:35:52.648Z,101359.00
2022-12-02T12:42:02.639Z,101359.00
2022-12-02T12:48:05.408Z,101381.00
2022-12-02T12:54:07.767Z,101383.00
2022-12-02T13:00:10.325Z,101382.00
2022-12-02T13:06:12.817Z,101383.00
2022-12-02T13:12:15.434Z,101386.00
2022-12-02T13:18:17.939Z,101382.00
2022-12-02T13:24:20.755Z,101385.00
2022-12-02T13:30:24.262Z,101375.00
2022-12-02T13:36:26.326Z,101374.00
2022-12-02T13:42:28.784Z,101364.00
2022-12-02T13:48:31.052Z,101367.00
2022-12-02T13:54:33.613Z,101367.00
2022-12-02T14:00:35.854Z,101379.00
2022-12-02T14:06:38.072Z,101392.00
2022-12-02T14:12:40.333Z,101406.00
2022-12-02T14:18:42.855Z,101420.00
2022-12-02T14:24:48.881Z,101427.00
2022-12-02T14:30:51.864Z,101423.00
2022-12-02T14:36:54.204Z,101424.00
2022-12-02T14:42:56.452Z,101428.00
2022-12-02T14:49:23.238Z,101440.00
2022-12-02T14:55:20.833Z,101441.00
2022-12-02T15:01:22.939Z,101452.00
2022-12-02T15:07:25.328Z,101449.00
2022-12-02T15:13:27.680Z,101456.00
2022-12-02T15:19:29.960Z,101461.00
2022-12-02T15:25:32.379Z,101460.00
2022-12-02T15:31:34.475Z,101472.00
2022-12-02T15:37:37.033Z,101459.00
2022-12-02T15:43:39.071Z,101456.00
2022-12-02T15:49:41.752Z,101466.00
2022-12-02T15:55:44.044Z,101473.00
2022-12-02T16:01:46.922Z,101476.00
2022-12-02T16:07:49.359Z,101476.00
2022-12-02T16:13:52.983Z,101481.00
2022-12-02T16:19:55.157Z,101484.00
2022-12-02T16:25:57.392Z,101495.00
2022-12-02T16:31:59.842Z,101493.00
2022-12-02T16:38:04.698Z,101504.00
2022-12-02T16:44:07.847Z,101496.00
2022-12-02T16:50:14.216Z,101511.00
2022-12-02T16:56:16.682Z,101518.00
2022-12-02T17:02:19.221Z,101512.00
2022-12-02T17:08:21.474Z,101514.00
2022-12-02T17:14:24.086Z,101520.00
2022-12-02T17:20:26.171Z,101525.00
2022-12-02T17:26:28.339Z,101527.00
2022-12-02T17:32:30.616Z,101523.00
2022-12-02T17:38:32.964Z,101533.00
2022-12-02T17:44:35.160Z,101524.00
2022-12-02T17:50:37.164Z,101535.00
2022-12-02T17:56:39.488Z,101531.00
2022-12-02T18:02:41.960Z,101528.00
2022-12-02T18:08:44.217Z,101517.00
2022-12-02T18:14:46.523Z,101533.00
2022-12-02T18:20:48.726Z,101525.00
2022-12-02T18:26:51.242Z,101535.00
2022-12-02T18:32:53.605Z,101534.00
2022-12-02T18:38:55.879Z,101537.00
2022-12-02T18:44:58.158Z,101548.00
2022-12-02T18:51:00.567Z,101541.00
2022-12-02T18:57:02.854Z,101553.00
2022-12-02T19:03:05.034Z,101553.00
2022-12-02T19:09:07.204Z,101557.00
2022-12-02T19:15:09.734Z,101556.00
2022-12-02T19:21:12.407Z,101559.00
2022-12-02T19:27:34.447Z,101550.00
2022-12-02T19:33:38.365Z,101561.00
2022-12-02T19:39:40.344Z,101562.00
2022-12-02T19:45:43.183Z,101567.00
2022-12-02T19:51:45.422Z,101575.00
2022-12-02T19:57:47.813Z,101581.00
2022-12-02T20:03:50.117Z,101579.00
2022-12-02T20:09:52.091Z,101589.00
2022-12-02T20:15:58.245Z,101597.00
2022-12-02T20:22:00.915Z,101598.00
2022-12-02T20:28:03.123Z,101599.00
2022-12-02T20:34:07.676Z,101609.00
2022-12-02T20:40:12.628Z,101615.00
2022-12-02T20:46:15.037Z,101615.00
2022-12-02T20:52:17.751Z,101603.00
2022-12-02T20:58:20.004Z,101618.00
2022-12-02T21:04:22.098Z,101623.00
2022-12-02T21:10:24.503Z,101628.00
2022-12-02T21:16:26.951Z,101634.00
2022-12-02T21:22:29.606Z,101627.00
2022-12-02T21:28:31.699Z,101636.00
2022-12-02T21:34:34.011Z,101639.00
2022-12-02T21:40:36.212Z,101636.00
2022-12-02T21:46:38.651Z,101636.00
2022-12-02T21:52:41.460Z,101625.00
2022-12-02T21:58:43.863Z,101631.00
2022-12-02T22:04:46.231Z,101615.00
2022-12-02T22:10:48.515Z,101618.00
2022-12-02T22:16:50.883Z,101625.00
2022-12-02T22:22:53.137Z,101623.00
2022-12-02T22:28:55.918Z,101616.00
2022-12-02T22:34:58.238Z,101624.00
2022-12-02T22:41:00.352Z,101616.00
2022-12-02T22:47:02.726Z,101614.00
2022-12-02T22:53:05.198Z,101603.00
2022-12-02T22:59:07.675Z,101606.00
2022-12-02T23:05:10.041Z,101608.00
2022-12-02T23:11:12.236Z,101606.00
2022-12-02T23:17:14.586Z,101608.00
2022-12-02T23:23:17.081Z,101609.00
2022-12-02T23:29:19.287Z,101616.00
2022-12-02T23:35:21.458Z,101614.00
2022-12-02T23:41:23.561Z,101601.00
2022-12-02T23:47:25.845Z,101607.00
2022-12-02T23:53:28.012Z,101614.00
2022-12-02T23:59:30.446Z,101618.00
